createdAt,value
2017-09-26T00:00:19.569Z,94.60
2017-09-26T00:02:45.645Z,94.60
2017-09-26T00:05:11.677Z,95.00
2017-09-26T00:07:37.737Z,94.60
2017-09-26T00:10:03.793Z,94.60
2017-09-26T00:12:29.889Z,94.70
2017-09-26T00:14:55.941Z,94.70
2017-09-26T00:17:22.042Z,94.80
2017-09-26T00:19:48.078Z,94.90
2017-09-26T00:22:14.134Z,95.00
2017-09-26T00:24:40.190Z,95.00
2017-09-26T00:27:07.037Z,95.00
2017-09-26T00:29:33.841Z,94.90
2017-09-26T00:31:59.888Z,94.90
2017-09-26T00:34:26.811Z,94.90
2017-09-26T00:36:52.934Z,94.90
2017-09-26T00:39:19.050Z,94.90
2017-09-26T00:41:45.102Z,95.00
2017-09-26T00:44:11.937Z,95.10
2017-09-26T00:46:38.005Z,95.10
2017-09-26T00:49:04.075Z,95.10
2017-09-26T00:51:30.865Z,95.40
2017-09-26T00:53:56.931Z,95.40
2017-09-26T00:56:23.740Z,95.30
2017-09-26T00:58:50.554Z,95.40
2017-09-26T01:04:14.926Z,95.20
2017-09-26T01:06:43.911Z,95.20
2017-09-26T01:09:10.730Z,95.10
2017-09-26T01:11:36.794Z,95.00
2017-09-26T01:14:02.896Z,95.10
2017-09-26T01:16:28.971Z,95.00
2017-09-26T01:18:55.053Z,94.80
2017-09-26T01:21:21.149Z,94.90
2017-09-26T01:23:47.201Z,95.10
2017-09-26T01:26:13.307Z,94.80
2017-09-26T01:28:40.117Z,95.00
2017-09-26T01:31:06.206Z,95.00
2017-09-26T01:33:33.021Z,94.90
2017-09-26T01:35:59.105Z,94.90
2017-09-26T01:38:25.170Z,94.90
2017-09-26T01:41:03.640Z,94.90
2017-09-26T01:43:29.666Z,94.90
2017-09-26T01:45:55.731Z,95.10
2017-09-26T01:48:21.802Z,94.90
2017-09-26T01:50:47.879Z,95.00
2017-09-26T01:53:13.929Z,94.80
2017-09-26T01:55:39.990Z,94.90
2017-09-26T01:58:07.665Z,94.90
2017-09-26T02:00:33.717Z,94.90
2017-09-26T02:02:59.790Z,94.80
2017-09-26T02:05:25.839Z,94.90
2017-09-26T02:07:52.621Z,95.20
2017-09-26T02:10:18.678Z,95.20
2017-09-26T02:12:44.781Z,95.00
2017-09-26T02:15:11.573Z,95.10
2017-09-26T02:17:37.644Z,95.10
2017-09-26T02:20:03.734Z,95.10
2017-09-26T02:22:30.533Z,95.10
2017-09-26T02:24:56.581Z,95.10
2017-09-26T02:27:23.357Z,95.10
2017-09-26T02:32:17.533Z,94.90
2017-09-26T02:34:43.594Z,94.90
2017-09-26T02:37:09.642Z,94.80
2017-09-26T02:39:35.748Z,94.70
2017-09-26T02:42:03.780Z,94.80
2017-09-26T02:44:29.840Z,94.80
2017-09-26T02:46:56.639Z,94.50
2017-09-26T02:49:22.698Z,94.50
2017-09-26T02:51:48.742Z,94.40
2017-09-26T02:54:14.809Z,94.40
2017-09-26T02:56:40.874Z,94.50
2017-09-26T02:59:06.929Z,94.60
2017-09-26T03:01:33.707Z,94.60
2017-09-26T03:03:59.742Z,94.60
2017-09-26T03:06:26.545Z,94.80
2017-09-26T03:08:52.593Z,94.80
2017-09-26T03:11:19.384Z,94.70
2017-09-26T03:13:45.430Z,94.70
2017-09-26T03:16:12.227Z,94.70
2017-09-26T03:18:38.281Z,94.70
2017-09-26T03:21:04.333Z,94.90
2017-09-26T03:23:30.415Z,95.00
2017-09-26T03:25:56.705Z,94.90
2017-09-26T03:28:22.769Z,94.90
2017-09-26T03:30:48.859Z,94.90
2017-09-26T03:33:14.913Z,94.90
2017-09-26T03:35:40.982Z,94.90
2017-09-26T03:38:07.083Z,95.20
2017-09-26T03:40:33.136Z,95.00
2017-09-26T03:42:59.970Z,95.10
2017-09-26T03:45:26.764Z,95.10
2017-09-26T03:47:52.834Z,95.10
2017-09-26T03:50:18.894Z,95.10
2017-09-26T03:52:44.939Z,95.20
2017-09-26T03:55:11.725Z,95.10
2017-09-26T03:57:37.789Z,95.10
2017-09-26T04:00:03.861Z,95.20
2017-09-26T04:02:30.669Z,95.20
2017-09-26T04:04:56.736Z,95.30
2017-09-26T04:07:22.785Z,95.30
2017-09-26T04:09:48.840Z,94.90
2017-09-26T04:12:14.911Z,95.10
2017-09-26T04:14:40.986Z,95.10
2017-09-26T04:17:07.037Z,95.10
2017-09-26T04:19:33.853Z,95.10
2017-09-26T04:21:59.915Z,95.10
2017-09-26T04:24:25.975Z,95.10
2017-09-26T04:26:52.018Z,95.00
2017-09-26T04:29:18.086Z,95.30
2017-09-26T04:31:44.157Z,95.30
2017-09-26T04:34:10.250Z,95.40
2017-09-26T04:36:36.314Z,95.20
2017-09-26T04:39:02.402Z,95.30
2017-09-26T04:41:28.460Z,95.40
2017-09-26T04:43:54.528Z,95.50
2017-09-26T04:46:20.610Z,95.50
2017-09-26T04:48:46.708Z,95.40
2017-09-26T04:51:12.769Z,95.50
2017-09-26T04:53:38.809Z,95.50
2017-09-26T04:56:05.594Z,95.60
2017-09-26T04:58:31.640Z,95.60
2017-09-26T05:01:00.413Z,95.50
2017-09-26T05:03:27.225Z,95.40
2017-09-26T05:05:53.446Z,95.40
2017-09-26T05:08:19.530Z,95.50
2017-09-26T05:10:45.590Z,95.40
2017-09-26T05:13:11.653Z,95.50
2017-09-26T05:15:37.721Z,95.60
2017-09-26T05:18:03.799Z,95.70
2017-09-26T05:20:30.600Z,95.80
2017-09-26T05:22:56.641Z,95.80
2017-09-26T05:25:23.465Z,95.80
2017-09-26T05:27:49.509Z,95.80
2017-09-26T05:30:15.571Z,95.70
2017-09-26T05:32:42.409Z,95.80
2017-09-26T05:35:08.459Z,95.80
2017-09-26T05:37:34.543Z,95.50
2017-09-26T05:40:00.606Z,95.60
2017-09-26T05:42:26.666Z,95.90
2017-09-26T05:44:52.728Z,96.10
2017-09-26T05:47:18.795Z,95.60
2017-09-26T05:49:44.841Z,95.60
2017-09-26T05:52:11.001Z,95.40
2017-09-26T05:54:37.069Z,95.40
2017-09-26T05:57:03.151Z,95.60
2017-09-26T05:59:29.215Z,95.70
2017-09-26T06:01:56.057Z,95.40
2017-09-26T06:04:22.165Z,95.40
2017-09-26T06:06:48.229Z,95.20
2017-09-26T06:09:14.287Z,95.20
2017-09-26T06:11:40.375Z,95.30
2017-09-26T06:14:07.190Z,95.40
2017-09-26T06:16:33.241Z,95.40
2017-09-26T06:18:59.315Z,95.60
2017-09-26T06:21:25.364Z,95.30
2017-09-26T06:23:51.416Z,95.30
2017-09-26T06:26:17.486Z,95.30
2017-09-26T06:28:43.557Z,95.30
2017-09-26T06:31:09.617Z,95.20
2017-09-26T06:33:35.745Z,95.60
2017-09-26T06:36:01.829Z,95.30
2017-09-26T06:38:27.942Z,95.30
2017-09-26T06:40:54.057Z,95.20
2017-09-26T06:43:20.101Z,95.30
2017-09-26T06:45:46.161Z,95.10
2017-09-26T06:48:12.229Z,94.90
2017-09-26T06:50:39.053Z,95.10
2017-09-26T06:53:05.865Z,95.20
2017-09-26T06:55:31.918Z,95.10
2017-09-26T06:57:57.998Z,94.90
2017-09-26T07:00:24.052Z,94.80
2017-09-26T07:02:50.141Z,94.80
2017-09-26T07:05:16.189Z,94.80
2017-09-26T07:07:42.257Z,94.70
2017-09-26T07:10:09.093Z,94.70
2017-09-26T07:12:35.140Z,94.70
2017-09-26T07:15:01.258Z,94.50
2017-09-26T07:17:27.309Z,94.60
2017-09-26T07:19:54.121Z,94.60
2017-09-26T07:22:20.290Z,94.60
2017-09-26T07:24:46.337Z,94.40
2017-09-26T07:27:12.378Z,94.20
2017-09-26T07:29:59.500Z,94.00
2017-09-26T07:32:25.577Z,94.20
2017-09-26T07:34:52.397Z,94.10
2017-09-26T07:37:19.216Z,93.80
2017-09-26T07:39:46.029Z,93.80
2017-09-26T07:42:12.102Z,93.70
2017-09-26T07:44:38.150Z,93.90
2017-09-26T07:47:04.962Z,94.20
2017-09-26T07:49:31.037Z,93.90
2017-09-26T07:51:57.105Z,94.10
2017-09-26T07:54:23.185Z,94.00
2017-09-26T07:56:49.267Z,94.00
2017-09-26T07:59:15.332Z,93.50
2017-09-26T08:01:41.394Z,93.40
2017-09-26T08:04:08.078Z,93.70
2017-09-26T08:06:34.929Z,93.60
2017-09-26T08:09:01.796Z,93.50
2017-09-26T08:11:28.132Z,93.60
2017-09-26T08:13:54.185Z,93.70
2017-09-26T08:16:20.254Z,93.90
2017-09-26T08:18:47.067Z,94.10
2017-09-26T08:21:13.154Z,93.80
2017-09-26T08:23:39.220Z,93.90
2017-09-26T08:26:06.038Z,94.10
2017-09-26T08:28:32.105Z,94.10
2017-09-26T08:30:58.154Z,94.30
2017-09-26T08:33:24.229Z,94.30
2017-09-26T08:35:50.297Z,94.40
2017-09-26T08:38:19.274Z,94.10
2017-09-26T08:40:45.329Z,93.90
2017-09-26T08:43:11.397Z,94.20
2017-09-26T08:45:37.458Z,94.10
2017-09-26T08:48:03.541Z,94.00
2017-09-26T08:50:29.604Z,93.90
2017-09-26T08:52:56.385Z,93.50
2017-09-26T08:55:22.449Z,93.50
2017-09-26T08:57:48.492Z,93.50
2017-09-26T09:00:14.537Z,93.80
2017-09-26T09:02:40.586Z,93.60
2017-09-26T09:05:06.668Z,93.50
2017-09-26T09:07:33.489Z,93.40
2017-09-26T09:10:00.290Z,93.40
2017-09-26T09:12:26.325Z,93.30
2017-09-26T09:14:53.125Z,93.50
2017-09-26T09:17:19.193Z,93.50
2017-09-26T09:19:45.277Z,93.10
2017-09-26T09:22:12.081Z,93.00
2017-09-26T09:24:38.902Z,93.00
2017-09-26T09:27:04.967Z,93.00
2017-09-26T09:29:31.050Z,93.10
2017-09-26T09:31:57.131Z,93.10
2017-09-26T09:34:23.196Z,92.90
2017-09-26T09:36:49.281Z,92.60
2017-09-26T09:39:16.102Z,92.90
2017-09-26T09:41:42.186Z,92.90
2017-09-26T09:44:08.260Z,92.80
2017-09-26T09:46:34.325Z,93.00
2017-09-26T09:49:01.129Z,92.80
2017-09-26T09:51:27.211Z,92.80
2017-09-26T09:53:53.265Z,92.80
2017-09-26T09:56:20.100Z,92.20
2017-09-26T09:58:46.158Z,92.10
2017-09-26T10:01:12.248Z,92.40
2017-09-26T10:03:38.309Z,92.20
2017-09-26T10:06:04.372Z,92.00
2017-09-26T10:08:31.355Z,92.30
2017-09-26T10:10:57.421Z,92.20
2017-09-26T10:13:23.473Z,92.00
2017-09-26T10:15:49.548Z,92.10
2017-09-26T10:18:15.616Z,92.50
2017-09-26T10:20:42.421Z,92.40
2017-09-26T10:23:08.464Z,92.40
2017-09-26T10:25:34.536Z,92.40
2017-09-26T10:28:01.363Z,91.80
2017-09-26T10:30:27.504Z,91.80
2017-09-26T10:32:54.285Z,92.00
2017-09-26T10:35:20.413Z,91.70
2017-09-26T10:37:46.531Z,91.60
2017-09-26T10:40:13.335Z,91.60
2017-09-26T10:42:39.511Z,91.50
2017-09-26T10:45:05.570Z,91.80
2017-09-26T10:47:32.381Z,91.10
2017-09-26T10:49:58.454Z,91.10
2017-09-26T10:52:24.540Z,90.90
2017-09-26T10:54:50.621Z,90.70
2017-09-26T10:57:16.707Z,91.00
2017-09-26T10:59:42.794Z,91.00
2017-09-26T11:02:08.857Z,91.00
2017-09-26T11:04:35.665Z,90.40
2017-09-26T11:07:01.734Z,90.40
2017-09-26T11:09:27.803Z,89.70
2017-09-26T11:11:53.869Z,90.00
2017-09-26T11:14:19.950Z,90.80
2017-09-26T11:16:46.086Z,90.30
2017-09-26T11:19:12.301Z,90.40
2017-09-26T11:21:38.365Z,90.50
2017-09-26T11:24:05.190Z,88.90
2017-09-26T11:26:32.012Z,89.10
2017-09-26T11:28:58.825Z,87.80
2017-09-26T11:31:24.869Z,87.70
2017-09-26T11:33:50.998Z,87.20
2017-09-26T11:36:17.060Z,87.80
2017-09-26T11:38:43.882Z,88.90
2017-09-26T11:41:09.937Z,88.90
2017-09-26T11:43:36.010Z,87.30
2017-09-26T11:46:02.044Z,86.80
2017-09-26T11:48:28.100Z,86.80
2017-09-26T11:50:54.177Z,87.00
2017-09-26T11:53:20.250Z,88.20
2017-09-26T11:55:47.045Z,88.80
2017-09-26T11:58:13.121Z,88.20
2017-09-26T12:00:39.169Z,88.90
2017-09-26T12:03:05.284Z,87.60
2017-09-26T12:05:31.345Z,87.70
2017-09-26T12:07:57.462Z,87.40
2017-09-26T12:10:23.550Z,87.40
2017-09-26T12:12:56.381Z,88.20
2017-09-26T12:15:22.434Z,88.20
2017-09-26T12:17:48.521Z,88.20
2017-09-26T12:20:14.614Z,88.20
2017-09-26T12:22:40.665Z,87.80
2017-09-26T12:25:06.734Z,88.20
2017-09-26T12:27:32.787Z,87.90
2017-09-26T12:29:58.833Z,87.90
2017-09-26T12:32:24.901Z,88.10
2017-09-26T12:34:50.981Z,87.70
2017-09-26T12:37:17.811Z,87.80
2017-09-26T12:39:43.890Z,87.30
2017-09-26T12:42:09.968Z,88.20
2017-09-26T12:44:36.017Z,86.80
2017-09-26T12:47:02.079Z,87.10
2017-09-26T12:49:28.183Z,87.40
2017-09-26T12:51:54.241Z,86.30
2017-09-26T12:54:20.297Z,85.40
2017-09-26T12:56:46.350Z,85.60
2017-09-26T12:59:12.439Z,82.80
2017-09-26T14:08:11.390Z,77.60
2017-09-26T14:10:37.469Z,79.50
2017-09-26T14:13:03.540Z,80.00
2017-09-26T14:15:29.644Z,80.30
2017-09-26T14:17:55.721Z,81.10
2017-09-26T14:20:21.788Z,81.20
2017-09-26T14:22:47.856Z,81.40
2017-09-26T14:25:14.585Z,81.60
2017-09-26T14:27:41.378Z,79.20
2017-09-26T14:30:07.436Z,79.10
2017-09-26T14:32:33.481Z,79.10
2017-09-26T14:34:59.515Z,80.00
2017-09-26T14:37:25.573Z,79.90
2017-09-26T14:39:51.626Z,81.20
2017-09-26T14:42:17.692Z,81.70
2017-09-26T14:44:43.791Z,81.40
2017-09-26T14:47:10.597Z,81.30
2017-09-26T14:49:37.394Z,81.60
2017-09-26T14:52:03.480Z,81.50
2017-09-26T14:54:29.544Z,81.00
2017-09-26T14:56:56.370Z,80.30
2017-09-26T14:59:22.396Z,80.20
2017-09-26T15:01:48.468Z,79.40
2017-09-26T15:04:16.005Z,78.70
2017-09-26T15:06:42.079Z,78.70
2017-09-26T15:09:08.131Z,79.10
2017-09-26T15:11:34.174Z,79.00
2017-09-26T15:14:00.241Z,79.10
2017-09-26T15:16:26.302Z,79.20
2017-09-26T15:18:52.357Z,79.50
2017-09-26T15:21:18.431Z,79.60
2017-09-26T15:23:44.482Z,80.10
2017-09-26T15:26:10.545Z,80.40
2017-09-26T15:28:36.587Z,81.40
2017-09-26T15:31:02.654Z,81.40
2017-09-26T15:33:28.725Z,81.20
2017-09-26T15:35:54.792Z,81.40
2017-09-26T15:38:20.917Z,82.20
2017-09-26T15:40:46.961Z,82.50
2017-09-26T15:43:20.665Z,83.10
2017-09-26T15:45:47.451Z,83.80
2017-09-26T15:48:13.529Z,83.70
2017-09-26T15:50:39.581Z,84.50
2017-09-26T15:53:05.628Z,84.30
2017-09-26T15:55:32.416Z,84.30
2017-09-26T15:57:58.485Z,84.20
2017-09-26T16:00:25.305Z,84.60
2017-09-26T16:02:51.615Z,84.60
2017-09-26T16:05:17.734Z,85.30
2017-09-26T16:07:43.769Z,85.50
2017-09-26T16:10:09.858Z,85.80
2017-09-26T16:12:35.954Z,86.10
2017-09-26T16:15:02.034Z,86.60
2017-09-26T16:17:28.857Z,87.00
2017-09-26T16:19:54.920Z,87.00
2017-09-26T16:22:21.151Z,87.20
2017-09-26T16:24:47.290Z,87.20
2017-09-26T16:27:14.111Z,87.80
2017-09-26T16:29:40.969Z,88.00
2017-09-26T16:32:07.741Z,88.30
2017-09-26T16:34:33.783Z,88.30
2017-09-26T16:37:00.640Z,88.30
2017-09-26T16:39:26.727Z,88.30
2017-09-26T16:41:53.617Z,89.20
2017-09-26T16:44:19.682Z,89.10
2017-09-26T16:46:45.838Z,89.80
2017-09-26T16:49:11.920Z,90.10
2017-09-26T16:51:37.984Z,89.80
2017-09-26T16:54:04.038Z,90.30
2017-09-26T16:56:30.130Z,90.30
2017-09-26T16:58:56.197Z,90.30
2017-09-26T17:01:22.253Z,90.40
2017-09-26T17:03:48.285Z,90.30
2017-09-26T17:06:14.370Z,90.50
2017-09-26T17:08:40.461Z,90.70
2017-09-26T17:11:07.317Z,91.30
2017-09-26T17:13:33.419Z,91.30
2017-09-26T17:16:00.614Z,91.60
2017-09-26T17:18:26.811Z,91.70
2017-09-26T17:20:52.873Z,91.30
2017-09-26T17:23:18.974Z,91.60
2017-09-26T17:25:45.139Z,91.90
2017-09-26T17:28:11.383Z,91.90
2017-09-26T17:30:38.197Z,92.10
2017-09-26T17:33:05.093Z,92.30
2017-09-26T17:35:31.163Z,92.30
2017-09-26T17:37:57.228Z,92.40
2017-09-26T17:40:24.205Z,92.50
2017-09-26T17:42:50.262Z,92.70
2017-09-26T17:45:16.339Z,92.80
2017-09-26T17:47:42.473Z,92.80
2017-09-26T17:50:08.559Z,92.90
2017-09-26T17:52:34.819Z,93.00
2017-09-26T17:55:00.888Z,92.90
2017-09-26T17:57:26.969Z,92.80
2017-09-26T17:59:53.850Z,93.00
2017-09-26T18:02:19.909Z,93.00
2017-09-26T18:04:46.727Z,93.20
2017-09-26T18:07:12.852Z,93.20
2017-09-26T18:09:38.982Z,93.00
2017-09-26T18:12:05.053Z,93.10
2017-09-26T18:14:31.857Z,93.20
2017-09-26T18:16:57.918Z,93.10
2017-09-26T18:19:23.979Z,93.40
2017-09-26T18:21:50.004Z,93.40
2017-09-26T18:24:16.054Z,93.40
2017-09-26T18:26:42.142Z,93.20
2017-09-26T18:29:08.933Z,93.40
2017-09-26T18:31:34.989Z,93.40
2017-09-26T18:34:01.033Z,93.30
2017-09-26T18:36:27.066Z,93.30
2017-09-26T18:38:53.108Z,93.60
2017-09-26T18:41:19.153Z,93.50
2017-09-26T18:43:45.189Z,93.40
2017-09-26T18:46:12.544Z,93.40
2017-09-26T18:48:38.667Z,93.40
2017-09-26T18:51:04.793Z,93.30
2017-09-26T18:53:30.849Z,93.30
2017-09-26T18:55:56.918Z,93.50
2017-09-26T18:58:22.956Z,93.50
2017-09-26T19:00:49.023Z,93.60
2017-09-26T19:03:15.145Z,93.50
2017-09-26T19:05:41.217Z,93.70
2017-09-26T19:08:07.709Z,93.50
2017-09-26T19:10:34.917Z,93.60
2017-09-26T19:13:01.087Z,93.60
2017-09-26T19:15:27.118Z,93.80
2017-09-26T19:17:53.901Z,93.80
2017-09-26T19:20:19.933Z,93.80
2017-09-26T19:22:45.987Z,93.80
2017-09-26T19:25:12.033Z,93.90
2017-09-26T19:27:38.127Z,93.70
2017-09-26T19:30:04.168Z,93.80
2017-09-26T19:32:30.225Z,94.00
2017-09-26T19:34:56.374Z,94.00
2017-09-26T19:37:22.449Z,93.90
2017-09-26T19:39:48.537Z,94.00
2017-09-26T19:42:14.642Z,94.00
2017-09-26T19:44:40.698Z,93.90
2017-09-26T19:47:06.729Z,94.20
2017-09-26T19:49:32.782Z,94.10
2017-09-26T19:51:58.851Z,94.20
2017-09-26T19:54:24.953Z,94.10
2017-09-26T19:56:52.043Z,94.00
2017-09-26T19:59:18.103Z,94.10
2017-09-26T20:01:44.146Z,93.90
2017-09-26T20:04:10.218Z,94.10
2017-09-26T20:06:37.009Z,94.20
2017-09-26T20:09:03.078Z,94.20
2017-09-26T20:11:29.170Z,94.30
2017-09-26T20:13:55.229Z,94.30
2017-09-26T20:16:21.282Z,94.30
2017-09-26T20:18:48.089Z,94.60
2017-09-26T20:21:14.145Z,94.60
2017-09-26T20:23:40.933Z,94.50
2017-09-26T20:26:06.970Z,94.50
2017-09-26T20:28:33.000Z,94.60
2017-09-26T20:30:59.929Z,94.60
2017-09-26T20:33:26.229Z,94.70
2017-09-26T20:35:53.030Z,94.80
2017-09-26T20:38:20.351Z,94.80
2017-09-26T20:40:46.593Z,94.90
2017-09-26T20:43:12.673Z,94.80
2017-09-26T20:45:38.742Z,95.00
2017-09-26T20:48:04.822Z,95.00
2017-09-26T20:50:31.641Z,94.90
2017-09-26T20:52:58.461Z,94.90
2017-09-26T20:55:24.497Z,94.90
2017-09-26T20:57:51.320Z,95.30
2017-09-26T21:00:18.113Z,95.30
2017-09-26T21:02:44.148Z,95.30
2017-09-26T21:05:10.977Z,95.20
2017-09-26T21:07:37.773Z,95.20
2017-09-26T21:10:03.850Z,95.30
2017-09-26T21:12:30.014Z,95.40
2017-09-26T21:14:56.058Z,95.40
2017-09-26T21:17:22.125Z,95.40
2017-09-26T21:19:50.843Z,95.50
2017-09-26T21:22:16.893Z,95.50
2017-09-26T21:24:42.941Z,95.50
2017-09-26T21:27:09.724Z,95.70
2017-09-26T21:29:35.776Z,95.60
2017-09-26T21:32:01.825Z,95.80
2017-09-26T21:34:27.885Z,95.80
2017-09-26T21:36:53.953Z,95.80
2017-09-26T21:39:20.006Z,95.80
2017-09-26T21:41:46.790Z,96.00
2017-09-26T21:44:12.835Z,96.00
2017-09-26T21:46:39.633Z,96.00
2017-09-26T21:49:05.693Z,95.90
2017-09-26T21:51:31.723Z,95.90
2017-09-26T21:53:57.833Z,96.10
2017-09-26T21:56:23.873Z,95.90
2017-09-26T21:58:49.926Z,96.00
2017-09-26T22:01:16.021Z,96.10
2017-09-26T22:03:42.069Z,96.20
2017-09-26T22:06:08.109Z,96.20
2017-09-26T22:08:34.169Z,96.20
2017-09-26T22:11:00.190Z,96.30
2017-09-26T22:13:26.272Z,96.30
2017-09-26T22:15:52.329Z,96.30
2017-09-26T22:18:18.397Z,96.50
2017-09-26T22:20:44.458Z,96.60
2017-09-26T22:23:10.616Z,96.50
2017-09-26T22:25:36.677Z,96.60
2017-09-26T22:28:02.735Z,96.30
2017-09-26T22:30:28.806Z,96.50
2017-09-26T22:32:54.953Z,96.50
2017-09-26T22:35:21.738Z,96.30
2017-09-26T22:37:47.793Z,96.30
2017-09-26T22:40:13.848Z,96.50
2017-09-26T22:42:39.903Z,96.60
2017-09-26T22:45:06.688Z,96.60
2017-09-26T22:47:32.729Z,96.60
2017-09-26T22:49:59.516Z,96.70
2017-09-26T22:52:25.568Z,96.70
2017-09-26T22:54:52.351Z,96.70
2017-09-26T22:57:18.452Z,96.70
2017-09-26T22:59:45.241Z,96.60
2017-09-26T23:02:11.282Z,96.60
2017-09-26T23:04:37.320Z,96.70
2017-09-26T23:07:03.366Z,96.70
2017-09-26T23:09:29.456Z,96.90
2017-09-26T23:11:56.237Z,96.90
2017-09-26T23:14:22.270Z,96.90
2017-09-26T23:16:48.318Z,97.00
2017-09-26T23:19:14.411Z,96.90
2017-09-26T23:21:40.460Z,96.90
2017-09-26T23:24:06.493Z,97.00
2017-09-26T23:26:32.545Z,96.80
2017-09-26T23:28:58.598Z,96.60
2017-09-26T23:31:24.649Z,96.60
2017-09-26T23:33:51.446Z,96.60
2017-09-26T23:36:17.490Z,96.50
2017-09-26T23:38:44.281Z,96.00
2017-09-26T23:41:10.337Z,96.00
2017-09-26T23:43:36.407Z,96.00
2017-09-26T23:46:02.453Z,95.90
2017-09-26T23:48:28.539Z,95.70
2017-09-26T23:50:55.357Z,95.70
2017-09-26T23:53:21.432Z,95.70
2017-09-26T23:55:47.482Z,95.70
2017-09-26T23:58:13.545Z,95.60
